»·PEaware :: AAL562 KPHX-MMSD

AAL562 :: KPHX-MMSD

FLIGHT INFORMATION

Flight Status: Arrived
Operator:
American Airlines
More flights by this operator :: More flights under this callsign
Pilot: Anonymous 15135 (15135)
Aircraft: BOEING 757-200
(B752)
More flights by this aircraft type
Origin: KPHX Phoenix Sky Harbor Intl
United States
Destination: MMSD Los Cabos Intl
Mexico
More flights between these airports :: More routes between these airports
Route: STRRM1 TUS J92 HMO DASVU ENEKO
File this flight plan on PilotEdge
Remarks: PBN / A1B3B4B5C4D4O4 DOF / 180716 REG / N537SB EET / MMZT0025 OPR / AAL PER / D RMK / TCAS SIMBRIEF
Altitude:
(Current/Filed)
39,000ft
Speed:
(Current/Filed)
458kts
Departed: 15-Jul-18 11:36 PM
Arrived: 16-Jul-18 01:31 AM
Distance/Time
Traveled:
628nm/1:55
Distance/Time
To Go:
Arrived

Flight Plot

Page will automatically refresh every two minutes.

Flight plan parsing failed; only flown route is shown


Map Options




Map Legend


Flown Route
Filed Route
Departure Airport
Arrival Airport
Navaid (VOR, NDB)
Fix

Horizontal Profiles

Position Reports

Time Latitude Longitude Heading Altitude Ground
Speed
15-Jul-18 23:20 33.438399 -112.001588 199 1120ft 0kts
15-Jul-18 23:21 33.438399 -112.001588 199 1120ft 0kts
15-Jul-18 23:22 33.438399 -112.001588 199 1120ft 0kts
15-Jul-18 23:23 33.438669 -112.001472 201 1120ft 2kts
15-Jul-18 23:24 33.439035 -112.000941 258 1120ft 2kts
15-Jul-18 23:25 33.439044 -112.001615 269 1120ft 0kts
15-Jul-18 23:26 33.439044 -112.001617 269 1120ft 0kts
15-Jul-18 23:27 33.439044 -112.001617 269 1120ft 0kts
15-Jul-18 23:28 33.439044 -112.001617 269 1120ft 0kts
15-Jul-18 23:29 33.439044 -112.001617 269 1120ft 0kts
15-Jul-18 23:30 33.439044 -112.001617 269 1120ft 0kts
15-Jul-18 23:31 33.439047 -112.003743 270 1120ft 14kts
15-Jul-18 23:32 33.439011 -112.010765 270 1120ft 24kts
15-Jul-18 23:33 33.439017 -112.017961 270 1120ft 19kts
15-Jul-18 23:34 33.439031 -112.023189 270 1120ft 15kts
15-Jul-18 23:35 33.439031 -112.027543 270 1120ft 11kts
15-Jul-18 23:36 33.440166 -112.029660 359 1120ft 8kts
15-Jul-18 23:37 33.440861 -112.010415 90 1178ft 165kts
15-Jul-18 23:38 33.438467 -111.950550 90 3694ft 216kts
15-Jul-18 23:39 33.430765 -111.873477 119 6366ft 272kts
15-Jul-18 23:40 33.370802 -111.812359 151 9648ft 300kts
15-Jul-18 23:41 33.282535 -111.820493 192 11711ft 361kts
15-Jul-18 23:42 33.184482 -111.846489 191 14942ft 370kts
15-Jul-18 23:43 33.090836 -111.900480 209 17795ft 385kts
15-Jul-18 23:44 32.996461 -111.950538 180 20269ft 393kts
15-Jul-18 23:45 32.896485 -111.911485 146 22577ft 402kts
15-Jul-18 23:46 32.815606 -111.818697 132 24799ft 413kts
15-Jul-18 23:47 32.737638 -111.720033 132 26901ft 423kts
15-Jul-18 23:48 32.656085 -111.616851 132 28751ft 435kts
15-Jul-18 23:49 32.572488 -111.511359 132 30485ft 445kts
15-Jul-18 23:50 32.487619 -111.404580 132 32563ft 444kts
15-Jul-18 23:51 32.404206 -111.299933 132 34755ft 438kts
15-Jul-18 23:52 32.324326 -111.200004 132 36576ft 436kts
15-Jul-18 23:53 32.241248 -111.096352 131 38013ft 435kts
15-Jul-18 23:54 32.158107 -110.992920 131 39108ft 436kts
15-Jul-18 23:55 32.054125 -110.923869 168 39120ft 444kts
15-Jul-18 23:56 31.930583 -110.923015 179 39110ft 447kts
15-Jul-18 23:57 31.806787 -110.928251 180 39109ft 447kts
15-Jul-18 23:58 31.682910 -110.933899 180 39192ft 448kts
15-Jul-18 23:59 31.558748 -110.939590 180 39191ft 448kts
16-Jul-18 00:00 31.434427 -110.945280 180 39189ft 448kts
16-Jul-18 00:01 31.310853 -110.950955 180 39183ft 448kts
16-Jul-18 00:02 31.186647 -110.956815 180 39183ft 447kts
16-Jul-18 00:03 31.062569 -110.962659 180 39183ft 447kts
16-Jul-18 00:04 30.938808 -110.968469 180 39183ft 447kts
16-Jul-18 00:05 30.816432 -110.974199 180 39182ft 447kts
16-Jul-18 00:06 30.692157 -110.979989 181 39182ft 447kts
16-Jul-18 00:07 30.568388 -110.985766 181 39182ft 447kts
16-Jul-18 00:08 30.444419 -110.991467 180 39183ft 447kts
16-Jul-18 00:09 30.320812 -110.997077 180 39183ft 447kts
16-Jul-18 00:10 30.196822 -111.002673 181 39104ft 443kts
16-Jul-18 00:11 30.074185 -111.008226 181 39009ft 443kts
16-Jul-18 00:12 29.951192 -111.013767 181 39009ft 443kts
16-Jul-18 00:13 29.828763 -111.019268 181 39009ft 443kts
16-Jul-18 00:14 29.706888 -111.024729 181 39008ft 442kts
16-Jul-18 00:15 29.583675 -111.030243 181 39009ft 441kts
16-Jul-18 00:16 29.461694 -111.035717 181 39009ft 441kts
16-Jul-18 00:17 29.339218 -111.041199 181 39009ft 441kts
16-Jul-18 00:18 29.217417 -111.046657 180 39009ft 442kts
16-Jul-18 00:19 29.094793 -111.050922 174 39012ft 441kts
16-Jul-18 00:20 28.973714 -111.034715 171 39009ft 441kts
16-Jul-18 00:21 28.852195 -111.017646 171 39009ft 441kts
16-Jul-18 00:22 28.730651 -111.000536 171 39008ft 441kts
16-Jul-18 00:23 28.609453 -110.983496 171 39009ft 443kts
16-Jul-18 00:24 28.486915 -110.966309 171 38907ft 443kts
16-Jul-18 00:25 28.365285 -110.949291 171 38871ft 443kts
16-Jul-18 00:26 28.243015 -110.932223 171 38872ft 443kts
16-Jul-18 00:27 28.122072 -110.915379 171 38871ft 442kts
16-Jul-18 00:28 28.000449 -110.898478 171 38871ft 442kts
16-Jul-18 00:29 27.879244 -110.881674 171 38871ft 442kts
16-Jul-18 00:30 27.762285 -110.865496 171 38871ft 442kts
16-Jul-18 00:31 27.641348 -110.848808 170 38871ft 440kts
16-Jul-18 00:32 27.519882 -110.832075 170 38871ft 440kts
16-Jul-18 00:33 27.398736 -110.815426 170 38871ft 440kts
16-Jul-18 00:34 27.277325 -110.798778 170 38871ft 440kts
16-Jul-18 00:35 27.155999 -110.782186 170 38871ft 440kts
16-Jul-18 00:36 27.035144 -110.765681 170 38874ft 440kts
16-Jul-18 00:37 26.914112 -110.749193 170 38898ft 440kts
16-Jul-18 00:38 26.793495 -110.732800 170 38879ft 441kts
16-Jul-18 00:39 26.672195 -110.716352 170 38879ft 442kts
16-Jul-18 00:40 26.550281 -110.699849 170 38879ft 442kts
16-Jul-18 00:41 26.428443 -110.683394 170 38879ft 442kts
16-Jul-18 00:42 26.307295 -110.667067 170 38879ft 442kts
16-Jul-18 00:43 26.185725 -110.650711 170 38879ft 442kts
16-Jul-18 00:44 26.063860 -110.634362 170 38879ft 442kts
16-Jul-18 00:45 25.942428 -110.618100 170 38880ft 442kts
16-Jul-18 00:46 25.821543 -110.601949 170 38879ft 442kts
16-Jul-18 00:47 25.699558 -110.585654 171 38879ft 444kts
16-Jul-18 00:48 25.577661 -110.569454 171 38879ft 445kts
16-Jul-18 00:49 25.454771 -110.553134 171 38879ft 445kts
16-Jul-18 00:50 25.332644 -110.536382 166 38880ft 444kts
16-Jul-18 00:51 25.229040 -110.470416 133 38885ft 439kts
16-Jul-18 00:52 25.146321 -110.377212 132 39018ft 439kts
16-Jul-18 00:53 25.062101 -110.280538 132 39019ft 439kts
16-Jul-18 00:54 24.977684 -110.183563 132 39019ft 439kts
16-Jul-18 00:55 24.893527 -110.087041 132 39018ft 439kts
16-Jul-18 00:56 24.811055 -109.992648 132 39017ft 439kts
16-Jul-18 00:57 24.726671 -109.896251 132 39017ft 441kts
16-Jul-18 00:58 24.641504 -109.799193 132 38023ft 440kts
16-Jul-18 00:59 24.557381 -109.703523 132 35690ft 436kts
16-Jul-18 01:00 24.473586 -109.608393 133 33416ft 439kts
16-Jul-18 01:01 24.388311 -109.511805 134 31155ft 444kts
16-Jul-18 01:02 24.282573 -109.451361 172 28864ft 433kts
16-Jul-18 01:03 24.165843 -109.465053 191 26517ft 423kts
16-Jul-18 01:04 24.053169 -109.492334 192 24386ft 412kts
16-Jul-18 01:05 23.944091 -109.519899 192 22329ft 400kts
16-Jul-18 01:06 23.838921 -109.546596 192 20565ft 388kts
16-Jul-18 01:07 23.737899 -109.572220 192 18468ft 379kts
16-Jul-18 01:08 23.737899 -109.572220 192 18468ft 379kts
16-Jul-18 01:09 23.737899 -109.572220 192 18468ft 379kts
16-Jul-18 01:10 23.737899 -109.572220 192 18468ft 379kts
16-Jul-18 01:11 23.737899 -109.572220 192 18468ft 379kts
16-Jul-18 01:12 23.737899 -109.572220 192 18468ft 379kts
16-Jul-18 01:13 23.737899 -109.572220 192 18468ft 379kts
16-Jul-18 01:14 23.737899 -109.572220 192 18468ft 379kts
16-Jul-18 01:15 23.707687 -109.579882 192 17862ft 364kts
16-Jul-18 01:16 23.610963 -109.604367 192 16065ft 352kts
16-Jul-18 01:17 23.520462 -109.627247 192 15218ft 308kts
16-Jul-18 01:18 23.439301 -109.647719 192 13981ft 297kts
16-Jul-18 01:19 23.359645 -109.667711 190 12606ft 292kts
16-Jul-18 01:20 23.301309 -109.620634 112 11181ft 291kts
16-Jul-18 01:21 23.251412 -109.556511 144 9499ft 259kts
16-Jul-18 01:22 23.187540 -109.525728 166 8002ft 255kts
16-Jul-18 01:23 23.118551 -109.522938 188 7011ft 248kts
16-Jul-18 01:24 23.055950 -109.546442 210 6272ft 228kts
16-Jul-18 01:25 23.007793 -109.588899 229 5376ft 219kts
16-Jul-18 01:26 22.976327 -109.643825 253 4290ft 214kts
16-Jul-18 01:27 22.992741 -109.691415 305 3317ft 209kts
16-Jul-18 01:28 23.041513 -109.706140 353 2462ft 163kts
16-Jul-18 01:29 23.086981 -109.712911 354 1356ft 127kts
16-Jul-18 01:30 23.121877 -109.716134 355 648ft 127kts
16-Jul-18 01:31 23.153386 -109.719270 8 337ft 59kts
16-Jul-18 01:32 23.156225 -109.716613 73 337ft 6kts
16-Jul-18 01:33 23.156285 -109.716076 85 337ft 0kts

Navigation Log

Ident Type
Flight plan parsing failed, navigation log unavailable